Time;durP1;ratioP1;P1;durP2;ratioP2;P2;SDS_P1;SDS_P2;PMS_P1;PMS_P2;Temp;Humidity;BMP_temperature;BMP_pressure;BME280_temperature;BME280_humidity;BME280_pressure;Samples;Min_cycle;Max_cycle;Signal;HPM_P1;HPM_P2
2021/11/19 00:02:10;;;;;;;63.73;16.00;;;;;;;-145.69;100.00;73942.25;5100070;28;20335;-80
2021/11/19 00:04:36;;;;;;;67.00;16.57;;;;;;;-145.69;100.00;73928.31;5100028;28;20198;-79
2021/11/19 00:07:05;;;;;;;67.10;17.33;;;;;;;-145.69;100.00;73926.34;5099840;28;20205;-79
2021/11/19 00:09:33;;;;;;;67.07;16.63;;;;;;;-145.69;100.00;73930.31;5099586;28;20286;-79
2021/11/19 00:12:00;;;;;;;62.70;15.70;;;;;;;-145.69;100.00;73938.28;5099869;28;20206;-79
2021/11/19 00:14:27;;;;;;;69.87;15.47;;;;;;;-145.69;100.00;73942.25;5099999;28;20251;-79
2021/11/19 00:16:57;;;;;;;71.37;17.97;;;;;;;-145.69;100.00;73940.28;5099814;28;20194;-80
2021/11/19 00:19:25;;;;;;;70.43;16.97;;;;;;;-145.69;100.00;73944.25;5100081;28;20208;-79
2021/11/19 00:21:52;;;;;;;64.63;16.27;;;;;;;-145.69;100.00;73958.19;5099870;28;20205;-80
2021/11/19 00:24:18;;;;;;;62.97;16.63;;;;;;;-145.69;100.00;73968.16;5099552;28;20261;-79
2021/11/19 00:26:48;;;;;;;68.90;16.47;;;;;;;-145.69;100.00;73962.19;5099859;28;20205;-79
2021/11/19 00:29:15;;;;;;;69.97;17.10;;;;;;;-145.69;100.00;73944.25;5099184;28;20324;-80
2021/11/19 00:31:43;;;;;;;63.13;15.83;;;;;;;-145.69;100.00;73948.25;5099193;28;20648;-80
2021/11/19 00:34:10;;;;;;;53.33;14.53;;;;;;;-145.69;100.00;73960.19;5099560;28;20202;-79
2021/11/19 00:36:38;;;;;;;49.70;14.13;;;;;;;-145.69;100.00;73974.13;5100333;28;20280;-79
2021/11/19 00:39:08;;;;;;;48.67;13.90;;;;;;;-145.69;100.00;73976.13;5118215;28;20197;-79
2021/11/19 00:41:35;;;;;;;47.90;13.33;;;;;;;-145.69;100.00;73982.09;5120234;28;20243;-79
2021/11/19 00:44:04;;;;;;;47.87;13.47;;;;;;;-145.69;100.00;73984.09;5116141;28;20201;-78
2021/11/19 00:46:30;;;;;;;49.90;12.47;;;;;;;-145.69;100.00;73990.06;5116990;28;20602;-78
2021/11/19 00:48:57;;;;;;;59.50;14.07;;;;;;;-145.69;100.00;73974.13;5116485;28;20233;-79
2021/11/19 00:51:25;;;;;;;52.93;13.57;;;;;;;-145.69;100.00;73970.16;5116853;28;20201;-78
2021/11/19 00:53:55;;;;;;;50.10;12.57;;;;;;;-145.69;100.00;73974.13;5116735;28;20194;-79
2021/11/19 00:56:24;;;;;;;45.33;12.17;;;;;;;-145.69;100.00;73982.09;5116522;28;20602;-78
2021/11/19 00:58:52;;;;;;;52.73;13.27;;;;;;;-145.69;100.00;73980.09;5116473;28;20205;-78
2021/11/19 01:01:25;;;;;;;50.13;12.67;;;;;;;-145.69;100.00;73982.09;5116365;28;20201;-78
2021/11/19 01:03:52;;;;;;;48.90;12.23;;;;;;;-145.69;100.00;73982.09;5116573;28;20197;-78
2021/11/19 01:06:19;;;;;;;46.10;12.63;;;;;;;-145.69;100.00;73986.06;5116522;28;20197;-78
2021/11/19 01:08:45;;;;;;;53.13;11.83;;;;;;;-145.69;100.00;73986.06;5116325;28;20274;-78
2021/11/19 01:11:16;;;;;;;43.63;12.53;;;;;;;-145.69;100.00;73980.09;5115958;28;20254;-78
2021/11/19 01:13:45;;;;;;;46.23;12.60;;;;;;;-145.69;100.00;73990.06;5116201;28;20201;-78
2021/11/19 01:16:17;;;;;;;39.67;11.67;;;;;;;-145.69;100.00;74004.00;5116005;28;20204;-78
2021/11/19 01:18:48;;;;;;;45.17;11.77;;;;;;;-145.69;100.00;74002.00;5116165;28;20206;-78
2021/11/19 01:21:18;;;;;;;52.77;12.03;;;;;;;-145.69;100.00;74000.00;5116160;28;20201;-78
2021/11/19 01:23:45;;;;;;;46.43;12.00;;;;;;;-145.69;100.00;74002.00;5115986;28;20224;-78
2021/11/19 01:26:19;;;;;;;44.10;11.33;;;;;;;-145.69;100.00;74000.00;5115752;28;20581;-78
2021/11/19 01:28:47;;;;;;;45.90;12.70;;;;;;;-145.69;100.00;74007.97;5116080;28;20197;-77
2021/11/19 01:31:16;;;;;;;42.80;11.97;;;;;;;-145.69;100.00;74005.97;5115707;28;20601;-78
2021/11/19 01:33:47;;;;;;;47.40;11.00;;;;;;;-145.69;100.00;74004.00;5115932;28;20246;-78
2021/11/19 01:36:14;;;;;;;44.13;11.33;;;;;;;-145.69;100.00;74013.94;5115723;28;20659;-78
2021/11/19 01:38:48;;;;;;;35.43;10.87;;;;;;;-145.69;100.00;74007.97;5111793;28;20198;-77
2021/11/19 01:41:18;;;;;;;44.73;11.53;;;;;;;-145.69;100.00;74004.00;5114660;28;20270;-77
2021/11/19 01:43:44;;;;;;;42.07;12.03;;;;;;;-145.69;100.00;74013.94;5115600;28;20590;-78
2021/11/19 01:46:15;;;;;;;39.70;10.67;;;;;;;-145.69;100.00;74000.00;5115600;28;20220;-78
2021/11/19 01:48:47;;;;;;;48.63;10.47;;;;;;;-145.69;100.00;73996.03;5115550;28;20201;-79
2021/11/19 01:51:21;;;;;;;43.77;10.97;;;;;;;-145.69;100.00;73998.03;5115655;28;20201;-78
2021/11/19 01:53:52;;;;;;;48.70;11.77;;;;;;;-145.69;100.00;73992.03;5114769;28;20209;-79
2021/11/19 01:56:25;;;;;;;40.23;10.10;;;;;;;-145.69;100.00;73980.09;5115117;28;20197;-78
2021/11/19 01:58:55;;;;;;;48.10;11.53;;;;;;;-145.69;100.00;73976.13;5115287;28;20668;-78
2021/11/19 02:01:25;;;;;;;42.83;10.63;;;;;;;-145.69;100.00;73974.13;5115387;28;20197;-78
2021/11/19 02:03:58;;;;;;;46.47;11.03;;;;;;;-145.69;100.00;73982.09;5115251;28;20198;-78
2021/11/19 02:06:28;;;;;;;36.70;11.00;;;;;;;-145.69;100.00;73978.09;5115443;28;20201;-78
2021/11/19 02:08:55;;;;;;;43.53;11.97;;;;;;;-145.69;100.00;73968.16;5115076;28;20308;-78
2021/11/19 02:11:41;;;;;;;47.80;11.53;;;;;;;-145.69;100.00;73972.13;5114982;28;20258;-78
2021/11/19 02:14:12;;;;;;;37.70;11.07;;;;;;;-145.69;100.00;73966.16;5114905;28;20284;-78
2021/11/19 02:16:42;;;;;;;38.00;11.43;;;;;;;-145.69;100.00;73958.19;5114828;28;20201;-78
2021/11/19 02:19:12;;;;;;;40.47;10.97;;;;;;;-145.69;100.00;73954.22;5115015;28;20254;-78
2021/11/19 02:21:42;;;;;;;36.10;10.07;;;;;;;-145.69;100.00;73962.19;5114781;28;20205;-78
2021/11/19 02:24:13;;;;;;;29.47;9.80;;;;;;;-145.69;100.00;73970.16;5114458;28;20262;-78
2021/11/19 02:26:44;;;;;;;27.87;9.87;;;;;;;-145.69;100.00;73976.13;5114826;28;20201;-78
2021/11/19 02:29:11;;;;;;;32.83;9.60;;;;;;;-145.69;100.00;73958.19;5114571;28;20278;-78
2021/11/19 02:31:47;;;;;;;33.73;10.43;;;;;;;-145.69;100.00;73954.22;5114832;28;20205;-78
2021/11/19 02:34:16;;;;;;;28.57;9.80;;;;;;;-145.69;100.00;73938.28;5114981;28;20254;-78
2021/11/19 02:36:45;;;;;;;37.47;10.37;;;;;;;-145.69;100.00;73938.28;5114416;28;20889;-78
2021/11/19 02:39:16;;;;;;;35.03;9.93;;;;;;;-145.69;100.00;73938.28;5114432;28;20194;-79
2021/11/19 02:41:47;;;;;;;33.30;10.13;;;;;;;-145.69;100.00;73940.28;5114749;28;20284;-78
2021/11/19 02:44:16;;;;;;;29.97;9.43;;;;;;;-145.69;100.00;73948.25;5100941;28;20260;-78
2021/11/19 02:46:46;;;;;;;32.17;10.20;;;;;;;-145.69;100.00;73954.22;5094062;28;20255;-78
2021/11/19 02:49:13;;;;;;;33.70;10.60;;;;;;;-145.69;100.00;73966.16;5093784;28;20772;-78
2021/11/19 02:51:41;;;;;;;28.03;9.63;;;;;;;-145.69;100.00;73968.16;5093933;28;20675;-77
2021/11/19 02:54:11;;;;;;;34.60;10.43;;;;;;;-145.69;100.00;73974.13;5093722;28;20719;-78
2021/11/19 02:56:38;;;;;;;37.27;9.30;;;;;;;-145.69;100.00;73966.16;5093793;28;20198;-76
2021/11/19 02:59:06;;;;;;;38.17;9.80;;;;;;;-145.69;100.00;73966.16;5093872;28;20619;-77
2021/11/19 03:01:36;;;;;;;37.60;10.50;;;;;;;-145.69;100.00;73940.28;5093694;28;20206;-77
2021/11/19 03:04:10;;;;;;;38.80;11.00;;;;;;;-145.69;100.00;73936.28;5093876;28;20194;-77
2021/11/19 03:06:39;;;;;;;42.77;10.67;;;;;;;-145.69;100.00;73946.25;5093143;28;20652;-78
2021/11/19 03:09:09;;;;;;;41.57;11.67;;;;;;;-145.69;100.00;73942.25;5093566;28;20202;-78
2021/11/19 03:11:36;;;;;;;37.97;10.83;;;;;;;-145.69;100.00;73946.25;5093539;28;20243;-77
2021/11/19 03:14:05;;;;;;;30.67;9.93;;;;;;;-145.69;100.00;73968.16;5093682;28;20605;-77
2021/11/19 03:16:32;;;;;;;37.93;11.23;;;;;;;-145.69;100.00;73958.19;5093595;28;20198;-77
2021/11/19 03:18:59;;;;;;;44.27;10.73;;;;;;;-145.69;100.00;73948.25;5093502;28;20247;-77
2021/11/19 03:21:26;;;;;;;45.40;10.73;;;;;;;-145.69;100.00;73926.34;5093592;28;20202;-77
2021/11/19 03:23:53;;;;;;;38.93;9.77;;;;;;;-145.69;100.00;73930.31;5093523;28;20255;-78
2021/11/19 03:26:21;;;;;;;36.73;10.20;;;;;;;-145.69;100.00;73938.28;5093462;28;20205;-78
2021/11/19 03:28:47;;;;;;;36.97;9.53;;;;;;;-145.69;100.00;73942.25;5093428;28;20202;-77
2021/11/19 03:31:15;;;;;;;39.00;10.20;;;;;;;-145.69;100.00;73942.25;5093400;28;20275;-78
2021/11/19 03:33:44;;;;;;;30.60;8.93;;;;;;;-145.69;100.00;73938.28;5093392;28;20206;-77
2021/11/19 03:36:13;;;;;;;31.30;8.80;;;;;;;-145.69;100.00;73944.25;5093483;28;20263;-77
2021/11/19 03:38:42;;;;;;;30.53;9.87;;;;;;;-145.69;100.00;73938.28;5093520;28;20258;-77
2021/11/19 03:41:10;;;;;;;33.70;9.00;;;;;;;-145.69;100.00;73942.25;5093367;28;20198;-78
2021/11/19 03:43:41;;;;;;;32.80;8.67;;;;;;;-145.69;100.00;73930.31;5093214;28;20718;-78
2021/11/19 03:46:14;;;;;;;29.97;8.47;;;;;;;-145.69;100.00;73926.34;5093203;28;20560;-77
2021/11/19 03:48:42;;;;;;;25.80;8.93;;;;;;;-145.69;100.00;73928.31;5093350;28;20255;-77
2021/11/19 03:51:12;;;;;;;35.57;9.00;;;;;;;-145.69;100.00;73940.28;5093042;28;20711;-77
2021/11/19 03:53:39;;;;;;;32.37;8.77;;;;;;;-145.69;100.00;73930.31;5093347;28;20206;-77
2021/11/19 03:56:06;;;;;;;26.53;8.93;;;;;;;-145.69;100.00;73934.31;5093305;28;20271;-78
2021/11/19 03:58:36;;;;;;;35.00;10.53;;;;;;;-145.69;100.00;73938.28;5093078;28;20198;-77
2021/11/19 04:01:06;;;;;;;29.33;8.53;;;;;;;-145.69;100.00;73942.25;5093101;28;20656;-77
2021/11/19 04:03:33;;;;;;;33.50;10.13;;;;;;;-145.69;100.00;73926.34;5093154;28;20259;-77
2021/11/19 04:05:59;;;;;;;42.20;11.03;;;;;;;-145.69;100.00;73918.38;5093213;28;20335;-77
2021/11/19 04:08:26;;;;;;;37.03;9.63;;;;;;;-145.69;100.00;73926.34;5093200;28;20194;-79
2021/11/19 04:10:53;;;;;;;32.43;9.40;;;;;;;-145.69;100.00;73922.34;5092669;28;20757;-77
2021/11/19 04:13:20;;;;;;;42.00;10.30;;;;;;;-145.69;100.00;73928.31;5093165;28;20538;-78
2021/11/19 04:15:50;;;;;;;34.73;10.57;;;;;;;-145.69;100.00;73938.28;5093103;28;20202;-77
2021/11/19 04:18:18;;;;;;;44.00;9.83;;;;;;;-145.69;100.00;73944.25;5094702;28;20206;-77
2021/11/19 04:20:45;;;;;;;34.33;9.60;;;;;;;-145.69;100.00;73942.25;5096807;28;20255;-78
2021/11/19 04:23:13;;;;;;;37.03;9.87;;;;;;;-145.69;100.00;73938.28;5096577;28;20202;-78
2021/11/19 04:25:39;;;;;;;34.93;9.47;;;;;;;-145.69;100.00;73932.31;5096533;28;20229;-77
2021/11/19 04:28:06;;;;;;;39.93;9.70;;;;;;;-145.69;100.00;73934.31;5096704;28;20613;-77
2021/11/19 04:30:36;;;;;;;31.20;9.90;;;;;;;-145.69;100.00;73942.25;5096845;28;20283;-77
2021/11/19 04:33:04;;;;;;;37.03;9.97;;;;;;;-145.69;100.00;73940.28;5096620;28;20194;-76
2021/11/19 04:35:32;;;;;;;37.57;8.77;;;;;;;-145.69;100.00;73930.31;5099053;28;20310;-77
2021/11/19 04:38:00;;;;;;;30.23;9.40;;;;;;;-145.69;100.00;73926.34;5096388;28;20198;-76
2021/11/19 04:40:27;;;;;;;35.63;8.83;;;;;;;-145.69;100.00;73930.31;5096215;28;20213;-77
2021/11/19 04:42:54;;;;;;;29.50;8.53;;;;;;;-145.69;100.00;73940.28;5096460;28;20198;-78
2021/11/19 04:45:23;;;;;;;34.40;8.53;;;;;;;-145.69;100.00;73932.31;5096331;28;20652;-76
2021/11/19 04:47:49;;;;;;;34.60;9.50;;;;;;;-145.69;100.00;73938.28;5096366;28;20236;-77
2021/11/19 04:50:19;;;;;;;36.93;8.37;;;;;;;-145.69;100.00;73940.28;5096196;28;20280;-77
2021/11/19 04:52:48;;;;;;;34.90;8.23;;;;;;;-145.69;100.00;73956.19;5096064;28;20220;-77
2021/11/19 04:55:16;;;;;;;33.53;8.67;;;;;;;-145.69;100.00;73954.22;5096292;28;20202;-78
2021/11/19 04:57:42;;;;;;;29.43;9.10;;;;;;;-145.69;100.00;73940.28;5096238;28;20683;-76
2021/11/19 05:00:14;;;;;;;31.60;8.50;;;;;;;-145.69;100.00;73940.28;5096023;28;20206;-76
2021/11/19 05:02:41;;;;;;;31.10;7.43;;;;;;;-145.69;100.00;73942.25;5095828;28;20774;-76
2021/11/19 05:05:08;;;;;;;37.13;8.57;;;;;;;-145.69;100.00;73932.31;5095813;28;20221;-76
2021/11/19 05:07:35;;;;;;;37.13;8.37;;;;;;;-145.69;100.00;73932.31;5096033;28;20202;-76
2021/11/19 05:10:04;;;;;;;26.63;7.10;;;;;;;-145.69;100.00;73934.31;5096138;28;20268;-76
2021/11/19 05:12:33;;;;;;;22.70;7.03;;;;;;;-145.69;100.00;73934.31;5095806;28;20652;-76
2021/11/19 05:14:59;;;;;;;31.80;8.03;;;;;;;-145.69;100.00;73922.34;5095709;28;20231;-75
2021/11/19 05:17:26;;;;;;;47.27;7.80;;;;;;;-145.69;100.00;73918.38;5095603;28;20197;-76
2021/11/19 05:19:52;;;;;;;27.93;8.30;;;;;;;-145.69;100.00;73926.34;5095657;28;20255;-76
2021/11/19 05:22:19;;;;;;;33.80;8.87;;;;;;;-145.69;100.00;73934.31;5095742;28;20255;-75
2021/11/19 05:24:46;;;;;;;28.47;8.13;;;;;;;-145.69;100.00;73948.25;5095402;28;20279;-76
2021/11/19 05:27:14;;;;;;;35.27;9.70;;;;;;;-145.69;100.00;73946.25;5095690;28;20194;-75
2021/11/19 05:29:41;;;;;;;49.50;8.33;;;;;;;-145.69;100.00;73946.25;5095212;28;20205;-76
2021/11/19 05:32:08;;;;;;;26.17;8.97;;;;;;;-145.69;100.00;73942.25;5095210;28;20690;-76
2021/11/19 05:34:35;;;;;;;36.23;8.10;;;;;;;-145.69;100.00;73946.25;5095362;28;20202;-76
2021/11/19 05:37:01;;;;;;;43.93;8.13;;;;;;;-145.69;100.00;73946.25;5095142;28;20675;-75
2021/11/19 05:39:28;;;;;;;34.30;8.17;;;;;;;-145.69;100.00;73954.22;5095425;28;20202;-76
2021/11/19 05:41:55;;;;;;;19.07;7.20;;;;;;;-145.69;100.00;73946.25;5095464;28;20656;-76
2021/11/19 05:44:23;;;;;;;29.70;8.67;;;;;;;-145.69;100.00;73952.22;5095331;28;20206;-76
2021/11/19 05:46:50;;;;;;;31.40;7.03;;;;;;;-145.69;100.00;73946.25;5095068;28;20259;-77
2021/11/19 05:49:19;;;;;;;34.07;6.97;;;;;;;-145.69;100.00;73948.25;5095262;28;20209;-76
2021/11/19 05:51:48;;;;;;;24.53;6.53;;;;;;;-145.69;100.00;73934.31;5095186;28;20580;-76
2021/11/19 05:54:17;;;;;;;29.43;7.93;;;;;;;-145.69;100.00;73938.28;5095091;28;20227;-77
2021/11/19 05:56:45;;;;;;;30.40;6.73;;;;;;;-145.69;100.00;73942.25;5094898;28;20450;-76
2021/11/19 05:59:12;;;;;;;24.57;5.80;;;;;;;-145.69;100.00;73942.25;5094923;28;20274;-77
2021/11/19 06:01:40;;;;;;;27.57;6.93;;;;;;;-145.69;100.00;73946.25;5094756;28;20198;-77
2021/11/19 06:04:07;;;;;;;29.70;6.57;;;;;;;-145.69;100.00;73936.28;5095068;28;20198;-77
2021/11/19 06:06:34;;;;;;;29.33;6.97;;;;;;;-145.69;100.00;73942.25;5094903;28;20205;-77
2021/11/19 06:09:01;;;;;;;32.60;6.43;;;;;;;-145.69;100.00;73948.25;5094713;28;20206;-77
2021/11/19 06:11:30;;;;;;;27.17;6.07;;;;;;;-145.69;100.00;73948.25;5094650;28;20222;-79
2021/11/19 06:14:00;;;;;;;29.57;5.93;;;;;;;-145.69;100.00;73948.25;5094499;28;20202;-80
2021/11/19 06:16:31;;;;;;;33.33;6.40;;;;;;;-145.69;100.00;73946.25;5094743;28;20202;-78
2021/11/19 06:19:01;;;;;;;25.87;6.07;;;;;;;-145.69;100.00;73934.31;5094615;28;20198;-79
2021/11/19 06:21:40;;;;;;;25.37;6.70;;;;;;;-145.69;100.00;73944.25;5094560;28;20254;-79
2021/11/19 06:24:10;;;;;;;24.27;6.53;;;;;;;-145.69;100.00;73956.19;5094234;28;20627;-80
2021/11/19 06:26:40;;;;;;;31.40;6.33;;;;;;;-145.69;100.00;73946.25;5094257;28;20542;-77
2021/11/19 06:29:06;;;;;;;31.30;6.83;;;;;;;-145.69;100.00;73922.34;5094340;28;20247;-77
2021/11/19 06:31:35;;;;;;;37.10;7.90;;;;;;;-145.69;100.00;73936.28;5094316;28;20247;-78
2021/11/19 06:34:04;;;;;;;22.70;6.23;;;;;;;-145.69;100.00;73938.28;5094513;28;20221;-78
2021/11/19 06:36:31;;;;;;;28.10;5.70;;;;;;;-145.69;100.00;73944.25;5094260;28;20251;-78
2021/11/19 06:38:59;;;;;;;26.50;5.47;;;;;;;-145.69;100.00;73940.28;5094105;28;20297;-77
2021/11/19 06:41:26;;;;;;;25.53;5.47;;;;;;;-145.69;100.00;73944.25;5093656;28;20198;-78
2021/11/19 06:43:53;;;;;;;21.27;5.10;;;;;;;-145.69;100.00;73930.31;5106912;28;20197;-78
2021/11/19 06:46:21;;;;;;;25.37;5.00;;;;;;;-145.69;100.00;73938.28;5114416;28;20652;-79
2021/11/19 06:48:49;;;;;;;33.50;5.83;;;;;;;-145.69;100.00;73940.28;5114326;28;20239;-78
2021/11/19 06:51:18;;;;;;;18.47;5.53;;;;;;;-145.69;100.00;73926.34;5114216;28;20233;-77
2021/11/19 06:53:47;;;;;;;27.27;6.60;;;;;;;-145.69;100.00;73910.41;5114073;28;20194;-78
2021/11/19 06:56:14;;;;;;;27.10;6.53;;;;;;;-145.69;100.00;73904.44;5114216;28;20205;-77
2021/11/19 06:58:40;;;;;;;29.57;5.53;;;;;;;-145.69;100.00;73908.41;5113949;28;20599;-77
2021/11/19 07:01:07;;;;;;;28.57;5.27;;;;;;;-145.69;100.00;73918.38;5113855;28;20201;-77
2021/11/19 07:03:34;;;;;;;17.87;5.40;;;;;;;-145.69;100.00;73904.44;5113799;28;20197;-77
2021/11/19 07:06:01;;;;;;;19.43;5.33;;;;;;;-145.69;100.00;73894.47;5113883;28;20197;-78
2021/11/19 07:08:30;;;;;;;21.03;5.10;;;;;;;-145.69;100.00;73894.47;5114424;28;20255;-77
2021/11/19 07:11:00;;;;;;;21.30;5.00;;;;;;;-145.69;100.00;73888.50;5114052;28;20228;-78
2021/11/19 07:13:27;;;;;;;23.77;5.90;;;;;;;-145.69;100.00;73890.50;5114009;28;20258;-78
2021/11/19 07:15:54;;;;;;;23.27;6.00;;;;;;;-145.69;100.00;73884.53;5113936;28;20259;-79
2021/11/19 07:18:22;;;;;;;14.10;4.73;;;;;;;-145.69;100.00;73878.56;5113773;28;20202;-79
2021/11/19 07:20:50;;;;;;;24.03;5.23;;;;;;;-145.69;100.00;73886.50;5113568;28;20677;-79
2021/11/19 07:23:17;;;;;;;20.10;4.37;;;;;;;-145.69;100.00;73886.50;5113613;28;20782;-79
2021/11/19 07:25:45;;;;;;;20.10;4.90;;;;;;;-145.69;100.00;73882.53;5113465;28;20241;-79
2021/11/19 07:28:12;;;;;;;16.40;4.97;;;;;;;-145.69;100.00;73880.53;5113828;28;20623;-79
2021/11/19 07:30:41;;;;;;;19.60;5.20;;;;;;;-145.69;100.00;73888.50;5113628;28;20246;-80
2021/11/19 07:33:08;;;;;;;25.37;5.27;;;;;;;-145.69;100.00;73894.47;5113483;28;20205;-78
2021/11/19 07:35:36;;;;;;;21.67;5.63;;;;;;;-145.69;100.00;73884.53;5113595;28;20586;-79
2021/11/19 07:38:03;;;;;;;17.77;5.97;;;;;;;-145.69;100.00;73880.53;5113745;28;20258;-78
2021/11/19 07:40:32;;;;;;;23.43;5.67;;;;;;;-145.69;100.00;73866.59;5113885;28;20209;-77
2021/11/19 07:43:01;;;;;;;35.28;9.50;;;;;;;-145.69;100.00;73868.59;5112700;28;20487;-78
2021/11/19 07:45:35;;;;;;;19.83;5.90;;;;;;;-145.69;100.00;73856.66;5113475;28;20198;-79
2021/11/19 07:48:01;;;;;;;25.03;6.00;;;;;;;-145.69;100.00;73846.69;5113764;28;20193;-79
2021/11/19 07:50:28;;;;;;;20.87;5.17;;;;;;;-145.69;100.00;73848.69;5113452;28;20720;-78
2021/11/19 07:52:55;;;;;;;24.20;5.70;;;;;;;-145.69;100.00;73842.72;5116580;28;20201;-79
2021/11/19 07:55:21;;;;;;;19.47;5.43;;;;;;;-145.69;100.00;73838.72;5117727;28;20213;-79
2021/11/19 07:57:48;;;;;;;18.20;5.53;;;;;;;-145.69;100.00;73844.69;5117587;28;20201;-79
2021/11/19 08:00:20;;;;;;;22.87;5.47;;;;;;;-145.69;100.00;73836.75;5117553;28;20194;-79
2021/11/19 08:02:47;;;;;;;20.47;4.90;;;;;;;-145.69;100.00;73820.81;5117513;28;20728;-79
2021/11/19 08:05:14;;;;;;;20.57;5.03;;;;;;;-145.69;100.00;73816.81;5117467;28;20197;-79
2021/11/19 08:07:41;;;;;;;16.47;4.87;;;;;;;-145.69;100.00;73816.81;5117382;28;20208;-79
2021/11/19 08:10:09;;;;;;;25.97;5.40;;;;;;;-145.69;100.00;73820.81;5117281;28;20549;-80
2021/11/19 08:12:37;;;;;;;18.60;4.40;;;;;;;-145.69;100.00;73812.84;5117106;28;20229;-80
2021/11/19 08:15:07;;;;;;;32.30;4.80;;;;;;;-145.69;100.00;73786.97;5117625;28;20296;-79
2021/11/19 08:17:37;;;;;;;21.73;5.53;;;;;;;-145.69;100.00;73802.88;5117303;28;20254;-80
2021/11/19 08:20:06;;;;;;;19.63;5.27;;;;;;;-145.69;100.00;73818.81;5117507;28;20594;-79
2021/11/19 08:22:33;;;;;;;19.87;4.90;;;;;;;-145.69;100.00;73826.78;5117061;28;20266;-79
2021/11/19 08:25:00;;;;;;;27.63;4.97;;;;;;;-145.69;100.00;73810.84;5116716;28;20591;-79
2021/11/19 08:27:32;;;;;;;34.07;7.20;;;;;;;-145.69;100.00;73806.88;5116904;28;20201;-79
2021/11/19 08:30:00;;;;;;;22.83;4.50;;;;;;;-145.69;100.00;73794.94;5117091;28;20651;-79
2021/11/19 08:32:28;;;;;;;17.63;4.43;;;;;;;-145.69;100.00;73769.03;5117228;28;20318;-79
2021/11/19 08:34:57;;;;;;;20.13;5.17;;;;;;;-145.69;100.00;73755.09;5115184;28;20198;-79
2021/11/19 08:37:26;;;;;;;18.10;5.77;;;;;;;-145.69;100.00;73747.13;5096872;28;20198;-79
2021/11/19 08:39:52;;;;;;;18.83;3.77;;;;;;;-145.69;100.00;73727.22;5096256;28;20297;-79
2021/11/19 08:42:20;;;;;;;29.13;6.17;;;;;;;-145.69;100.00;73715.28;5096561;28;20198;-77
2021/11/19 08:44:47;;;;;;;20.83;5.87;;;;;;;-145.69;100.00;73723.25;5096180;28;20221;-77
2021/11/19 08:47:15;;;;;;;21.97;5.67;;;;;;;-145.69;100.00;73719.25;5096122;28;20256;-77
2021/11/19 08:49:42;;;;;;;24.40;5.27;;;;;;;-145.69;100.00;73683.44;5096226;28;20271;-77
2021/11/19 08:52:15;;;;;;;21.83;4.70;;;;;;;-145.69;100.00;73663.53;5096131;28;20631;-78
2021/11/19 08:54:42;;;;;;;21.87;5.10;;;;;;;-145.69;100.00;73647.59;5098384;28;20208;-75
2021/11/19 08:57:28;;;;;;;16.83;4.37;;;;;;;-145.69;100.00;73637.63;5098760;28;20198;-77
2021/11/19 09:00:01;;;;;;;18.70;4.17;;;;;;;-145.69;100.00;73627.69;5099199;28;20197;-78
2021/11/19 09:02:28;;;;;;;15.63;3.90;;;;;;;-145.69;100.00;73621.72;5095795;28;20214;-78
2021/11/19 09:04:55;;;;;;;30.93;4.80;;;;;;;-145.69;100.00;73599.81;5095196;28;20202;-77
2021/11/19 09:07:23;;;;;;;18.83;3.80;;;;;;;-145.69;100.00;73583.88;5095920;28;20225;-78
2021/11/19 09:09:50;;;;;;;16.60;4.47;;;;;;;-145.69;100.00;73556.00;5095987;28;20199;-77
2021/11/19 09:12:17;;;;;;;23.50;5.33;;;;;;;-145.69;100.00;73536.09;5095924;28;20275;-78
2021/11/19 09:14:44;;;;;;;23.03;5.20;;;;;;;-145.69;100.00;73516.19;5095807;28;20213;-78
2021/11/19 09:17:15;;;;;;;31.37;9.27;;;;;;;-145.69;100.00;73506.22;5095753;28;20263;-78
2021/11/19 09:19:48;;;;;;;33.93;13.77;;;;;;;-145.69;100.00;73492.28;5095755;28;20202;-78
2021/11/19 09:22:42;;;;;;;30.27;12.67;;;;;;;-145.69;100.00;73474.38;5097191;28;20255;-78
2021/11/19 09:25:59;;;;;;;33.10;8.57;;;;;;;-145.69;100.00;73468.41;5098349;28;20238;-78
2021/11/19 09:49:01;;;;;;;21.97;7.17;;;;;;;-145.69;100.00;73356.91;4938698;28;20274;-79
2021/11/19 09:52:06;;;;;;;18.60;7.60;;;;;;;-145.69;100.00;73354.94;5026180;28;20229;-79
2021/11/19 09:55:09;;;;;;;18.83;6.97;;;;;;;-145.69;100.00;73339.00;5095572;28;20246;-79
2021/11/19 09:58:09;;;;;;;17.30;7.57;;;;;;;-145.69;100.00;73327.06;5095055;28;20223;-80
2021/11/19 10:00:55;;;;;;;17.03;5.67;;;;;;;-145.69;100.00;73313.13;5095162;28;20554;-80
2021/11/19 10:03:43;;;;;;;11.17;4.47;;;;;;;-145.69;100.00;73293.22;5095339;28;20209;-80
2021/11/19 10:06:14;;;;;;;9.50;4.13;;;;;;;-145.69;100.00;73281.25;5095665;28;20190;-82
2021/11/19 10:08:54;;;;;;;9.97;4.10;;;;;;;-145.69;100.00;73255.38;5095312;28;20247;-80
2021/11/19 10:11:26;;;;;;;19.97;4.40;;;;;;;-145.69;100.00;73243.44;5094773;28;20204;-78
2021/11/19 10:14:18;;;;;;;11.10;3.30;;;;;;;-145.69;100.00;73237.47;5105970;28;20198;-81
2021/11/19 10:17:02;;;;;;;12.13;3.60;;;;;;;-145.69;100.00;73221.53;5113760;28;20255;-80
2021/11/19 10:19:32;;;;;;;9.87;3.40;;;;;;;-145.69;100.00;73209.59;5114768;28;20266;-79
2021/11/19 10:22:09;;;;;;;15.10;4.40;;;;;;;-145.69;100.00;73201.63;5114465;28;20197;-80
2021/11/19 10:24:44;;;;;;;13.53;4.00;;;;;;;-145.69;100.00;73175.75;5114139;28;20699;-80
2021/11/19 10:27:13;;;;;;;8.53;2.47;;;;;;;-145.69;100.00;73169.78;5114400;28;20669;-80
2021/11/19 10:29:46;;;;;;;7.63;1.93;;;;;;;-145.69;100.00;73149.88;5103259;28;20222;-79
2021/11/19 10:32:16;;;;;;;6.97;1.50;;;;;;;-145.69;100.00;73133.94;5093936;28;20221;-82
2021/11/19 10:34:49;;;;;;;3.80;1.70;;;;;;;-145.69;100.00;73126.00;5094266;28;20198;-81
2021/11/19 10:37:31;;;;;;;5.03;1.70;;;;;;;-145.69;97.79;73122.00;5094220;28;20202;-81
2021/11/19 10:40:16;;;;;;;8.87;2.37;;;;;;;-145.69;100.00;73100.09;5093989;28;20259;-81
2021/11/19 10:43:10;;;;;;;2.73;1.90;;;;;;;-145.69;100.00;73094.13;5093796;28;20209;-81
2021/11/19 10:46:13;;;;;;;9.10;2.13;;;;;;;-145.69;100.00;73074.22;5094032;28;20615;-81
2021/11/19 10:49:34;;;;;;;3.37;1.50;;;;;;;-145.69;100.00;73054.31;5093809;28;20587;-81
2021/11/19 10:52:49;;;;;;;5.07;1.37;;;;;;;-145.69;100.00;73044.38;5090705;28;20745;-81
2021/11/19 10:55:54;;;;;;;7.43;1.67;;;;;;;-145.69;100.00;73022.47;5093414;28;20256;-81
2021/11/19 10:58:48;;;;;;;6.93;1.80;;;;;;;-145.69;95.97;73008.53;5093600;28;20205;-81
2021/11/19 11:01:24;;;;;;;6.00;1.70;;;;;;;-145.69;98.59;72982.66;5093407;28;20205;-81
2021/11/19 11:04:09;;;;;;;6.53;2.00;;;;;;;-145.69;100.00;72960.75;5093626;28;20287;-81
2021/11/19 11:06:45;;;;;;;10.80;2.37;;;;;;;-145.69;100.00;72950.81;5093454;28;20204;-81
2021/11/19 11:09:31;;;;;;;5.10;2.23;;;;;;;-145.69;96.93;72950.81;5093362;28;20237;-81
2021/11/19 11:12:08;;;;;;;5.30;2.00;;;;;;;-145.69;100.00;72914.97;5093083;28;20218;-80
2021/11/19 11:14:35;;;;;;;4.67;1.60;;;;;;;-145.69;98.40;72895.06;5093320;28;20294;-79
2021/11/19 11:17:22;;;;;;;3.53;1.20;;;;;;;-145.69;85.10;72869.19;5093253;28;20202;-79
2021/11/19 11:19:50;;;;;;;5.83;1.60;;;;;;;-145.69;91.10;72857.25;5093304;28;20209;-78
2021/11/19 11:22:20;;;;;;;5.47;1.83;;;;;;;-145.69;94.39;72859.25;5093001;28;20292;-79
2021/11/19 11:24:52;;;;;;;4.87;1.60;;;;;;;-145.69;94.58;72859.25;5092888;28;20739;-79
2021/11/19 11:27:37;;;;;;;3.83;1.30;;;;;;;-145.69;82.04;72839.34;5092662;28;20557;-81
2021/11/19 11:30:08;;;;;;;3.90;1.53;;;;;;;-145.69;78.77;72827.38;5093113;28;20221;-82
2021/11/19 11:32:59;;;;;;;6.53;1.70;;;;;;;-145.69;82.80;72833.38;5093033;28;20631;-80
2021/11/19 11:35:35;;;;;;;5.13;2.17;;;;;;;-145.69;100.00;72821.41;5093087;28;20198;-80
2021/11/19 11:38:49;;;;;;;9.37;1.80;;;;;;;-145.69;83.27;72805.50;5093049;28;20202;-79